sensor_id;sensor_type;location;lat;lon;timestamp;temperature;humidity
6375;DHT22;35400;45.472;-122.822;2023-06-24T00:00:39;28.70;74.00
6375;DHT22;35400;45.472;-122.822;2023-06-24T00:03:06;28.50;74.00
6375;DHT22;35400;45.472;-122.822;2023-06-24T00:05:34;28.40;74.20
6375;DHT22;35400;45.472;-122.822;2023-06-24T00:08:00;28.20;75.20
6375;DHT22;35400;45.472;-122.822;2023-06-24T00:10:28;28.10;75.50
6375;DHT22;35400;45.472;-122.822;2023-06-24T00:12:55;27.60;76.20
6375;DHT22;35400;45.472;-122.822;2023-06-24T00:15:28;27.50;81.50
6375;DHT22;35400;45.472;-122.822;2023-06-24T00:17:55;26.70;87.60
6375;DHT22;35400;45.472;-122.822;2023-06-24T00:20:33;26.60;89.30
6375;DHT22;35400;45.472;-122.822;2023-06-24T00:22:59;26.40;87.10
6375;DHT22;35400;45.472;-122.822;2023-06-24T00:25:26;26.30;87.70
6375;DHT22;35400;45.472;-122.822;2023-06-24T00:27:53;26.20;85.90
6375;DHT22;35400;45.472;-122.822;2023-06-24T00:30:20;26.30;88.10
6375;DHT22;35400;45.472;-122.822;2023-06-24T00:32:47;26.20;86.30
6375;DHT22;35400;45.472;-122.822;2023-06-24T00:35:14;26.10;83.70
6375;DHT22;35400;45.472;-122.822;2023-06-24T00:37:41;26.10;85.20
6375;DHT22;35400;45.472;-122.822;2023-06-24T00:40:10;26.10;84.40
6375;DHT22;35400;45.472;-122.822;2023-06-24T00:42:37;26.10;85.10
6375;DHT22;35400;45.472;-122.822;2023-06-24T00:45:05;26.20;87.10
6375;DHT22;35400;45.472;-122.822;2023-06-24T00:47:33;26.10;86.40
6375;DHT22;35400;45.472;-122.822;2023-06-24T00:50:01;26.10;87.80
6375;DHT22;35400;45.472;-122.822;2023-06-24T00:52:27;26.00;88.50
6375;DHT22;35400;45.472;-122.822;2023-06-24T00:54:54;25.90;89.70
6375;DHT22;35400;45.472;-122.822;2023-06-24T00:57:22;25.90;90.40
6375;DHT22;35400;45.472;-122.822;2023-06-24T00:59:52;25.80;91.20
6375;DHT22;35400;45.472;-122.822;2023-06-24T01:02:21;25.70;91.60
6375;DHT22;35400;45.472;-122.822;2023-06-24T01:04:49;25.60;92.20
6375;DHT22;35400;45.472;-122.822;2023-06-24T01:07:18;25.50;92.90
6375;DHT22;35400;45.472;-122.822;2023-06-24T01:09:45;25.50;93.70
6375;DHT22;35400;45.472;-122.822;2023-06-24T01:12:12;25.40;93.80
6375;DHT22;35400;45.472;-122.822;2023-06-24T01:14:39;25.30;94.00
6375;DHT22;35400;45.472;-122.822;2023-06-24T01:17:12;25.10;94.50
6375;DHT22;35400;45.472;-122.822;2023-06-24T01:20:02;25.00;94.60
6375;DHT22;35400;45.472;-122.822;2023-06-24T01:33:50;24.70;94.50
6375;DHT22;35400;45.472;-122.822;2023-06-24T01:36:22;24.60;94.80
6375;DHT22;35400;45.472;-122.822;2023-06-24T01:39:01;24.60;94.90
6375;DHT22;35400;45.472;-122.822;2023-06-24T01:41:36;24.50;94.90
6375;DHT22;35400;45.472;-122.822;2023-06-24T01:44:05;24.30;95.20
6375;DHT22;35400;45.472;-122.822;2023-06-24T01:46:37;24.30;95.10
6375;DHT22;35400;45.472;-122.822;2023-06-24T01:49:04;24.30;95.10
6375;DHT22;35400;45.472;-122.822;2023-06-24T01:51:35;24.30;95.10
6375;DHT22;35400;45.472;-122.822;2023-06-24T01:54:06;24.30;93.10
6375;DHT22;35400;45.472;-122.822;2023-06-24T01:56:34;24.40;93.20
6375;DHT22;35400;45.472;-122.822;2023-06-24T01:59:03;24.40;92.70
6375;DHT22;35400;45.472;-122.822;2023-06-24T02:01:36;24.40;93.40
6375;DHT22;35400;45.472;-122.822;2023-06-24T02:04:08;24.50;93.70
6375;DHT22;35400;45.472;-122.822;2023-06-24T02:06:36;24.50;93.80
6375;DHT22;35400;45.472;-122.822;2023-06-24T02:09:05;24.40;92.10
6375;DHT22;35400;45.472;-122.822;2023-06-24T02:11:34;24.40;91.20
6375;DHT22;35400;45.472;-122.822;2023-06-24T02:14:04;24.30;91.00
6375;DHT22;35400;45.472;-122.822;2023-06-24T02:16:32;24.20;91.00
6375;DHT22;35400;45.472;-122.822;2023-06-24T02:19:01;24.20;91.20
6375;DHT22;35400;45.472;-122.822;2023-06-24T02:21:29;24.20;91.30
6375;DHT22;35400;45.472;-122.822;2023-06-24T02:23:57;24.10;90.50
6375;DHT22;35400;45.472;-122.822;2023-06-24T02:26:25;24.10;89.80
6375;DHT22;35400;45.472;-122.822;2023-06-24T02:28:52;24.10;90.70
6375;DHT22;35400;45.472;-122.822;2023-06-24T02:31:19;24.00;91.20
6375;DHT22;35400;45.472;-122.822;2023-06-24T02:33:46;24.00;91.40
6375;DHT22;35400;45.472;-122.822;2023-06-24T02:36:13;23.90;91.40
6375;DHT22;35400;45.472;-122.822;2023-06-24T02:38:40;23.90;91.50
6375;DHT22;35400;45.472;-122.822;2023-06-24T02:41:07;23.80;91.30
6375;DHT22;35400;45.472;-122.822;2023-06-24T02:43:33;23.80;91.30
6375;DHT22;35400;45.472;-122.822;2023-06-24T02:46:03;23.70;91.50
6375;DHT22;35400;45.472;-122.822;2023-06-24T02:48:33;23.70;89.20
6375;DHT22;35400;45.472;-122.822;2023-06-24T02:51:02;23.60;85.00
6375;DHT22;35400;45.472;-122.822;2023-06-24T02:53:30;23.50;82.00
6375;DHT22;35400;45.472;-122.822;2023-06-24T02:55:57;23.40;82.70
6375;DHT22;35400;45.472;-122.822;2023-06-24T02:58:25;23.40;82.50
6375;DHT22;35400;45.472;-122.822;2023-06-24T03:01:04;23.30;82.90
6375;DHT22;35400;45.472;-122.822;2023-06-24T03:03:47;23.20;81.90
6375;DHT22;35400;45.472;-122.822;2023-06-24T03:06:17;23.20;82.10
6375;DHT22;35400;45.472;-122.822;2023-06-24T03:08:45;23.10;81.50
6375;DHT22;35400;45.472;-122.822;2023-06-24T03:11:14;23.10;81.80
6375;DHT22;35400;45.472;-122.822;2023-06-24T03:13:41;23.00;81.90
6375;DHT22;35400;45.472;-122.822;2023-06-24T03:16:16;23.00;82.40
6375;DHT22;35400;45.472;-122.822;2023-06-24T03:19:04;22.90;82.70
6375;DHT22;35400;45.472;-122.822;2023-06-24T03:21:31;22.90;83.10
6375;DHT22;35400;45.472;-122.822;2023-06-24T03:24:07;22.80;83.00
6375;DHT22;35400;45.472;-122.822;2023-06-24T03:26:38;22.80;85.80
6375;DHT22;35400;45.472;-122.822;2023-06-24T03:29:11;22.60;89.60
6375;DHT22;35400;45.472;-122.822;2023-06-24T03:31:44;22.50;90.40
6375;DHT22;35400;45.472;-122.822;2023-06-24T03:34:16;22.40;90.40
6375;DHT22;35400;45.472;-122.822;2023-06-24T03:36:44;22.30;90.70
6375;DHT22;35400;45.472;-122.822;2023-06-24T03:39:13;22.20;90.80
6375;DHT22;35400;45.472;-122.822;2023-06-24T03:41:40;22.00;90.70
6375;DHT22;35400;45.472;-122.822;2023-06-24T03:44:07;21.90;90.90
6375;DHT22;35400;45.472;-122.822;2023-06-24T03:46:35;21.80;90.90
6375;DHT22;35400;45.472;-122.822;2023-06-24T03:49:02;21.80;91.10
6375;DHT22;35400;45.472;-122.822;2023-06-24T03:51:29;21.70;91.30
6375;DHT22;35400;45.472;-122.822;2023-06-24T03:53:56;21.60;91.40
6375;DHT22;35400;45.472;-122.822;2023-06-24T03:56:23;21.50;91.70
6375;DHT22;35400;45.472;-122.822;2023-06-24T03:58:49;21.30;91.90
6375;DHT22;35400;45.472;-122.822;2023-06-24T04:01:17;21.10;92.00
6375;DHT22;35400;45.472;-122.822;2023-06-24T04:03:46;21.10;92.20
6375;DHT22;35400;45.472;-122.822;2023-06-24T04:06:13;21.00;92.40
6375;DHT22;35400;45.472;-122.822;2023-06-24T04:08:40;20.90;92.60
6375;DHT22;35400;45.472;-122.822;2023-06-24T04:11:10;20.80;93.20
6375;DHT22;35400;45.472;-122.822;2023-06-24T04:13:37;20.70;93.10
6375;DHT22;35400;45.472;-122.822;2023-06-24T04:16:05;20.60;93.30
6375;DHT22;35400;45.472;-122.822;2023-06-24T04:18:34;20.60;93.40
6375;DHT22;35400;45.472;-122.822;2023-06-24T04:21:03;20.50;93.70
6375;DHT22;35400;45.472;-122.822;2023-06-24T04:23:31;20.50;94.00
6375;DHT22;35400;45.472;-122.822;2023-06-24T04:25:58;20.40;93.70
6375;DHT22;35400;45.472;-122.822;2023-06-24T04:28:24;20.40;93.10
6375;DHT22;35400;45.472;-122.822;2023-06-24T04:30:52;20.20;84.10
6375;DHT22;35400;45.472;-122.822;2023-06-24T04:33:18;20.20;82.40
6375;DHT22;35400;45.472;-122.822;2023-06-24T04:35:45;20.10;83.40
6375;DHT22;35400;45.472;-122.822;2023-06-24T04:38:13;20.00;83.60
6375;DHT22;35400;45.472;-122.822;2023-06-24T04:40:46;20.00;83.70
6375;DHT22;35400;45.472;-122.822;2023-06-24T04:43:13;19.90;84.30
6375;DHT22;35400;45.472;-122.822;2023-06-24T04:45:39;19.80;82.70
6375;DHT22;35400;45.472;-122.822;2023-06-24T04:48:06;19.70;82.70
6375;DHT22;35400;45.472;-122.822;2023-06-24T04:50:33;19.60;81.50
6375;DHT22;35400;45.472;-122.822;2023-06-24T04:53:00;19.60;82.20
6375;DHT22;35400;45.472;-122.822;2023-06-24T04:55:28;19.50;82.40
6375;DHT22;35400;45.472;-122.822;2023-06-24T04:57:57;19.40;80.90
6375;DHT22;35400;45.472;-122.822;2023-06-24T05:00:24;19.30;80.50
6375;DHT22;35400;45.472;-122.822;2023-06-24T05:02:51;19.30;80.40
6375;DHT22;35400;45.472;-122.822;2023-06-24T05:05:18;19.20;81.40
6375;DHT22;35400;45.472;-122.822;2023-06-24T05:07:46;19.20;82.10
6375;DHT22;35400;45.472;-122.822;2023-06-24T05:10:13;19.10;81.90
6375;DHT22;35400;45.472;-122.822;2023-06-24T05:12:40;19.10;81.80
6375;DHT22;35400;45.472;-122.822;2023-06-24T05:15:07;19.00;81.50
6375;DHT22;35400;45.472;-122.822;2023-06-24T05:17:34;18.90;81.70
6375;DHT22;35400;45.472;-122.822;2023-06-24T05:20:02;18.80;81.10
6375;DHT22;35400;45.472;-122.822;2023-06-24T05:22:29;18.80;80.90
6375;DHT22;35400;45.472;-122.822;2023-06-24T05:24:56;18.70;82.20
6375;DHT22;35400;45.472;-122.822;2023-06-24T05:27:22;18.60;81.30
6375;DHT22;35400;45.472;-122.822;2023-06-24T05:29:49;18.60;81.60
6375;DHT22;35400;45.472;-122.822;2023-06-24T05:32:16;18.50;81.70
6375;DHT22;35400;45.472;-122.822;2023-06-24T05:34:43;18.50;82.20
6375;DHT22;35400;45.472;-122.822;2023-06-24T05:37:10;18.40;81.80
6375;DHT22;35400;45.472;-122.822;2023-06-24T05:39:37;18.40;82.20
6375;DHT22;35400;45.472;-122.822;2023-06-24T05:42:04;18.30;82.40
6375;DHT22;35400;45.472;-122.822;2023-06-24T05:44:31;18.20;82.30
6375;DHT22;35400;45.472;-122.822;2023-06-24T05:46:57;18.20;82.70
6375;DHT22;35400;45.472;-122.822;2023-06-24T05:49:24;18.10;83.00
6375;DHT22;35400;45.472;-122.822;2023-06-24T05:51:51;18.00;83.40
6375;DHT22;35400;45.472;-122.822;2023-06-24T05:54:17;18.00;83.80
6375;DHT22;35400;45.472;-122.822;2023-06-24T05:56:44;17.90;84.20
6375;DHT22;35400;45.472;-122.822;2023-06-24T05:59:11;17.80;84.40
6375;DHT22;35400;45.472;-122.822;2023-06-24T06:01:37;17.80;85.20
6375;DHT22;35400;45.472;-122.822;2023-06-24T06:04:04;17.70;85.50
6375;DHT22;35400;45.472;-122.822;2023-06-24T06:06:31;17.70;86.00
6375;DHT22;35400;45.472;-122.822;2023-06-24T06:08:59;17.60;87.30
6375;DHT22;35400;45.472;-122.822;2023-06-24T06:11:26;17.60;87.00
6375;DHT22;35400;45.472;-122.822;2023-06-24T06:13:53;17.50;87.30
6375;DHT22;35400;45.472;-122.822;2023-06-24T06:16:20;17.50;87.70
6375;DHT22;35400;45.472;-122.822;2023-06-24T06:18:47;17.40;88.10
6375;DHT22;35400;45.472;-122.822;2023-06-24T06:21:14;17.40;88.60
6375;DHT22;35400;45.472;-122.822;2023-06-24T06:23:40;17.30;88.90
6375;DHT22;35400;45.472;-122.822;2023-06-24T06:26:07;17.20;88.90
6375;DHT22;35400;45.472;-122.822;2023-06-24T06:28:35;17.10;89.00
6375;DHT22;35400;45.472;-122.822;2023-06-24T06:31:02;17.00;89.10
6375;DHT22;35400;45.472;-122.822;2023-06-24T06:33:28;17.00;89.50
6375;DHT22;35400;45.472;-122.822;2023-06-24T06:35:55;16.90;89.60
6375;DHT22;35400;45.472;-122.822;2023-06-24T06:38:22;16.90;90.00
6375;DHT22;35400;45.472;-122.822;2023-06-24T06:40:49;16.90;90.10
6375;DHT22;35400;45.472;-122.822;2023-06-24T06:43:15;16.80;90.30
6375;DHT22;35400;45.472;-122.822;2023-06-24T06:45:42;16.70;90.40
6375;DHT22;35400;45.472;-122.822;2023-06-24T06:48:09;16.60;90.40
6375;DHT22;35400;45.472;-122.822;2023-06-24T06:50:36;16.60;90.40
6375;DHT22;35400;45.472;-122.822;2023-06-24T06:53:02;16.50;90.60
6375;DHT22;35400;45.472;-122.822;2023-06-24T06:55:29;16.50;90.70
6375;DHT22;35400;45.472;-122.822;2023-06-24T06:57:56;16.40;90.90
6375;DHT22;35400;45.472;-122.822;2023-06-24T07:00:23;16.40;90.90
6375;DHT22;35400;45.472;-122.822;2023-06-24T07:02:50;16.30;91.00
6375;DHT22;35400;45.472;-122.822;2023-06-24T07:05:16;16.30;91.00
6375;DHT22;35400;45.472;-122.822;2023-06-24T07:07:43;16.20;91.00
6375;DHT22;35400;45.472;-122.822;2023-06-24T07:10:11;16.20;91.20
6375;DHT22;35400;45.472;-122.822;2023-06-24T07:12:39;16.10;91.10
6375;DHT22;35400;45.472;-122.822;2023-06-24T07:15:06;16.10;91.30
6375;DHT22;35400;45.472;-122.822;2023-06-24T07:17:33;16.00;91.30
6375;DHT22;35400;45.472;-122.822;2023-06-24T07:20:00;15.90;91.20
6375;DHT22;35400;45.472;-122.822;2023-06-24T07:22:26;15.90;91.30
6375;DHT22;35400;45.472;-122.822;2023-06-24T07:24:53;15.90;91.50
6375;DHT22;35400;45.472;-122.822;2023-06-24T07:27:23;15.80;91.50
6375;DHT22;35400;45.472;-122.822;2023-06-24T07:29:50;15.70;91.60
6375;DHT22;35400;45.472;-122.822;2023-06-24T07:32:16;15.60;91.60
6375;DHT22;35400;45.472;-122.822;2023-06-24T07:34:43;15.60;91.80
6375;DHT22;35400;45.472;-122.822;2023-06-24T07:37:10;15.50;91.90
6375;DHT22;35400;45.472;-122.822;2023-06-24T07:39:36;15.50;91.90
6375;DHT22;35400;45.472;-122.822;2023-06-24T07:42:03;15.40;92.00
6375;DHT22;35400;45.472;-122.822;2023-06-24T07:44:30;15.40;92.10
6375;DHT22;35400;45.472;-122.822;2023-06-24T07:46:57;15.30;92.20
6375;DHT22;35400;45.472;-122.822;2023-06-24T07:49:24;15.20;92.30
6375;DHT22;35400;45.472;-122.822;2023-06-24T07:51:51;15.20;92.30
6375;DHT22;35400;45.472;-122.822;2023-06-24T07:54:18;15.10;92.50
6375;DHT22;35400;45.472;-122.822;2023-06-24T07:56:45;15.00;92.60
6375;DHT22;35400;45.472;-122.822;2023-06-24T07:59:11;15.00;92.80
6375;DHT22;35400;45.472;-122.822;2023-06-24T08:01:38;15.00;92.70
6375;DHT22;35400;45.472;-122.822;2023-06-24T08:04:04;14.90;92.70
6375;DHT22;35400;45.472;-122.822;2023-06-24T08:06:31;14.90;92.80
6375;DHT22;35400;45.472;-122.822;2023-06-24T08:08:58;14.80;92.80
6375;DHT22;35400;45.472;-122.822;2023-06-24T08:11:25;14.80;92.80
6375;DHT22;35400;45.472;-122.822;2023-06-24T08:13:52;14.70;92.80
6375;DHT22;35400;45.472;-122.822;2023-06-24T08:16:18;14.70;92.90
6375;DHT22;35400;45.472;-122.822;2023-06-24T08:18:46;14.60;93.10
6375;DHT22;35400;45.472;-122.822;2023-06-24T08:21:13;14.60;93.20
6375;DHT22;35400;45.472;-122.822;2023-06-24T08:23:40;14.50;93.30
6375;DHT22;35400;45.472;-122.822;2023-06-24T08:26:07;14.50;93.60
6375;DHT22;35400;45.472;-122.822;2023-06-24T08:28:35;14.40;93.70
6375;DHT22;35400;45.472;-122.822;2023-06-24T08:31:02;14.40;93.90
6375;DHT22;35400;45.472;-122.822;2023-06-24T08:33:29;14.30;94.00
6375;DHT22;35400;45.472;-122.822;2023-06-24T08:35:55;14.20;94.30
6375;DHT22;35400;45.472;-122.822;2023-06-24T08:38:22;14.20;94.30
6375;DHT22;35400;45.472;-122.822;2023-06-24T08:40:49;14.10;94.40
6375;DHT22;35400;45.472;-122.822;2023-06-24T08:43:17;14.10;94.60
6375;DHT22;35400;45.472;-122.822;2023-06-24T08:45:43;14.10;94.90
6375;DHT22;35400;45.472;-122.822;2023-06-24T08:48:12;14.00;95.00
6375;DHT22;35400;45.472;-122.822;2023-06-24T08:50:52;13.90;95.10
6375;DHT22;35400;45.472;-122.822;2023-06-24T08:53:19;13.90;95.20
6375;DHT22;35400;45.472;-122.822;2023-06-24T08:55:47;13.80;95.40
6375;DHT22;35400;45.472;-122.822;2023-06-24T08:58:15;13.80;95.60
6375;DHT22;35400;45.472;-122.822;2023-06-24T09:00:43;13.70;95.70
6375;DHT22;35400;45.472;-122.822;2023-06-24T09:03:10;13.70;95.80
6375;DHT22;35400;45.472;-122.822;2023-06-24T09:05:37;13.70;96.00
6375;DHT22;35400;45.472;-122.822;2023-06-24T09:08:03;13.60;96.20
6375;DHT22;35400;45.472;-122.822;2023-06-24T09:13:06;13.50;96.50
6375;DHT22;35400;45.472;-122.822;2023-06-24T09:15:34;13.50;96.90
6375;DHT22;35400;45.472;-122.822;2023-06-24T09:18:01;13.40;97.10
6375;DHT22;35400;45.472;-122.822;2023-06-24T09:20:30;13.40;97.40
6375;DHT22;35400;45.472;-122.822;2023-06-24T09:23:04;13.40;97.70
6375;DHT22;35400;45.472;-122.822;2023-06-24T09:25:31;13.30;97.90
6375;DHT22;35400;45.472;-122.822;2023-06-24T09:28:02;13.30;98.10
6375;DHT22;35400;45.472;-122.822;2023-06-24T09:30:29;13.20;98.30
6375;DHT22;35400;45.472;-122.822;2023-06-24T09:32:56;13.20;98.60
6375;DHT22;35400;45.472;-122.822;2023-06-24T09:35:24;13.10;99.00
6375;DHT22;35400;45.472;-122.822;2023-06-24T09:37:58;13.10;99.40
6375;DHT22;35400;45.472;-122.822;2023-06-24T09:40:27;13.00;99.70
6375;DHT22;35400;45.472;-122.822;2023-06-24T09:42:56;13.00;99.90
6375;DHT22;35400;45.472;-122.822;2023-06-24T09:45:25;12.90;99.90
6375;DHT22;35400;45.472;-122.822;2023-06-24T09:47:52;12.90;99.90
6375;DHT22;35400;45.472;-122.822;2023-06-24T09:50:20;12.80;99.90
6375;DHT22;35400;45.472;-122.822;2023-06-24T09:52:48;12.80;99.90
6375;DHT22;35400;45.472;-122.822;2023-06-24T09:55:17;12.80;99.90
6375;DHT22;35400;45.472;-122.822;2023-06-24T09:57:51;12.70;99.90
6375;DHT22;35400;45.472;-122.822;2023-06-24T10:00:20;12.70;99.90
6375;DHT22;35400;45.472;-122.822;2023-06-24T10:02:48;12.60;99.90
6375;DHT22;35400;45.472;-122.822;2023-06-24T10:05:15;12.60;99.90
6375;DHT22;35400;45.472;-122.822;2023-06-24T10:07:42;12.50;99.90
6375;DHT22;35400;45.472;-122.822;2023-06-24T10:10:09;12.50;99.90
6375;DHT22;35400;45.472;-122.822;2023-06-24T10:15:05;12.40;99.90
6375;DHT22;35400;45.472;-122.822;2023-06-24T10:17:33;12.40;99.90
6375;DHT22;35400;45.472;-122.822;2023-06-24T10:20:04;12.30;99.90
6375;DHT22;35400;45.472;-122.822;2023-06-24T10:22:32;12.30;99.90
6375;DHT22;35400;45.472;-122.822;2023-06-24T10:25:05;12.30;99.90
6375;DHT22;35400;45.472;-122.822;2023-06-24T10:27:39;12.20;99.90
6375;DHT22;35400;45.472;-122.822;2023-06-24T10:30:06;12.20;99.90
6375;DHT22;35400;45.472;-122.822;2023-06-24T10:32:41;12.20;99.90
6375;DHT22;35400;45.472;-122.822;2023-06-24T10:35:28;12.20;99.90
6375;DHT22;35400;45.472;-122.822;2023-06-24T10:37:59;12.10;99.90
6375;DHT22;35400;45.472;-122.822;2023-06-24T10:40:39;12.10;99.90
6375;DHT22;35400;45.472;-122.822;2023-06-24T10:45:58;12.00;99.90
6375;DHT22;35400;45.472;-122.822;2023-06-24T10:48:27;11.90;99.90
6375;DHT22;35400;45.472;-122.822;2023-06-24T10:50:54;11.90;99.90
6375;DHT22;35400;45.472;-122.822;2023-06-24T10:53:22;11.80;99.90
6375;DHT22;35400;45.472;-122.822;2023-06-24T10:55:48;11.80;99.90
6375;DHT22;35400;45.472;-122.822;2023-06-24T10:58:15;11.80;99.90
6375;DHT22;35400;45.472;-122.822;2023-06-24T11:00:43;11.80;99.90
6375;DHT22;35400;45.472;-122.822;2023-06-24T11:03:15;11.70;99.90
6375;DHT22;35400;45.472;-122.822;2023-06-24T11:05:43;11.70;99.90
6375;DHT22;35400;45.472;-122.822;2023-06-24T11:08:10;11.70;99.90
6375;DHT22;35400;45.472;-122.822;2023-06-24T11:10:48;11.70;99.90
6375;DHT22;35400;45.472;-122.822;2023-06-24T11:13:15;11.60;99.90
6375;DHT22;35400;45.472;-122.822;2023-06-24T11:15:42;11.60;99.90
6375;DHT22;35400;45.472;-122.822;2023-06-24T11:18:09;11.60;99.90
6375;DHT22;35400;45.472;-122.822;2023-06-24T11:20:39;11.50;99.90
6375;DHT22;35400;45.472;-122.822;2023-06-24T11:23:08;11.50;99.90
6375;DHT22;35400;45.472;-122.822;2023-06-24T11:25:42;11.50;99.90
6375;DHT22;35400;45.472;-122.822;2023-06-24T11:28:27;11.40;99.90
6375;DHT22;35400;45.472;-122.822;2023-06-24T11:31:06;11.40;99.90
6375;DHT22;35400;45.472;-122.822;2023-06-24T11:33:34;11.30;99.90
6375;DHT22;35400;45.472;-122.822;2023-06-24T11:36:00;11.30;99.90
6375;DHT22;35400;45.472;-122.822;2023-06-24T11:38:28;11.30;99.90
6375;DHT22;35400;45.472;-122.822;2023-06-24T11:40:58;11.20;99.90
6375;DHT22;35400;45.472;-122.822;2023-06-24T11:43:26;11.20;99.90
6375;DHT22;35400;45.472;-122.822;2023-06-24T11:45:52;11.20;99.90
6375;DHT22;35400;45.472;-122.822;2023-06-24T11:48:20;11.10;99.90
6375;DHT22;35400;45.472;-122.822;2023-06-24T11:50:53;11.10;99.90
6375;DHT22;35400;45.472;-122.822;2023-06-24T11:53:30;11.10;99.90
6375;DHT22;35400;45.472;-122.822;2023-06-24T11:56:00;11.00;99.90
6375;DHT22;35400;45.472;-122.822;2023-06-24T11:58:26;11.00;99.90
6375;DHT22;35400;45.472;-122.822;2023-06-24T12:00:53;10.90;99.90
6375;DHT22;35400;45.472;-122.822;2023-06-24T12:03:22;10.90;99.90
6375;DHT22;35400;45.472;-122.822;2023-06-24T12:05:51;10.80;99.90
6375;DHT22;35400;45.472;-122.822;2023-06-24T12:08:18;10.80;99.90
6375;DHT22;35400;45.472;-122.822;2023-06-24T12:10:45;10.80;99.90
6375;DHT22;35400;45.472;-122.822;2023-06-24T12:13:12;10.80;99.90
6375;DHT22;35400;45.472;-122.822;2023-06-24T12:15:40;10.70;99.90
6375;DHT22;35400;45.472;-122.822;2023-06-24T12:18:07;10.70;99.90
6375;DHT22;35400;45.472;-122.822;2023-06-24T12:20:34;10.70;99.90
6375;DHT22;35400;45.472;-122.822;2023-06-24T12:23:03;10.60;99.90
6375;DHT22;35400;45.472;-122.822;2023-06-24T12:25:30;10.60;99.90
6375;DHT22;35400;45.472;-122.822;2023-06-24T12:27:57;10.60;99.90
6375;DHT22;35400;45.472;-122.822;2023-06-24T12:30:25;10.50;99.90
6375;DHT22;35400;45.472;-122.822;2023-06-24T12:32:52;10.50;99.90
6375;DHT22;35400;45.472;-122.822;2023-06-24T12:35:19;10.50;99.90
6375;DHT22;35400;45.472;-122.822;2023-06-24T12:37:46;10.50;99.90
6375;DHT22;35400;45.472;-122.822;2023-06-24T12:40:14;10.50;99.90
6375;DHT22;35400;45.472;-122.822;2023-06-24T12:42:40;10.50;99.90
6375;DHT22;35400;45.472;-122.822;2023-06-24T12:45:08;10.40;99.90
6375;DHT22;35400;45.472;-122.822;2023-06-24T12:47:35;10.40;99.90
6375;DHT22;35400;45.472;-122.822;2023-06-24T12:50:02;10.40;99.90
6375;DHT22;35400;45.472;-122.822;2023-06-24T12:52:34;10.40;99.90
6375;DHT22;35400;45.472;-122.822;2023-06-24T12:55:00;10.40;99.90
6375;DHT22;35400;45.472;-122.822;2023-06-24T12:57:27;10.40;99.90
6375;DHT22;35400;45.472;-122.822;2023-06-24T12:59:54;10.40;99.90
6375;DHT22;35400;45.472;-122.822;2023-06-24T13:02:21;10.40;99.90
6375;DHT22;35400;45.472;-122.822;2023-06-24T13:04:48;10.40;99.90
6375;DHT22;35400;45.472;-122.822;2023-06-24T13:07:15;10.40;99.90
6375;DHT22;35400;45.472;-122.822;2023-06-24T13:09:41;10.50;99.90
6375;DHT22;35400;45.472;-122.822;2023-06-24T13:12:09;10.50;99.90
6375;DHT22;35400;45.472;-122.822;2023-06-24T13:14:36;10.50;99.90
6375;DHT22;35400;45.472;-122.822;2023-06-24T13:17:02;10.50;99.90
6375;DHT22;35400;45.472;-122.822;2023-06-24T13:19:30;10.60;99.90
6375;DHT22;35400;45.472;-122.822;2023-06-24T13:21:59;10.60;99.90
6375;DHT22;35400;45.472;-122.822;2023-06-24T13:24:26;10.70;99.90
6375;DHT22;35400;45.472;-122.822;2023-06-24T13:26:52;10.80;99.90
6375;DHT22;35400;45.472;-122.822;2023-06-24T13:29:19;10.80;99.90
6375;DHT22;35400;45.472;-122.822;2023-06-24T13:31:47;10.90;99.90
6375;DHT22;35400;45.472;-122.822;2023-06-24T13:34:13;11.00;99.90
6375;DHT22;35400;45.472;-122.822;2023-06-24T13:36:40;11.10;99.90
6375;DHT22;35400;45.472;-122.822;2023-06-24T13:39:08;11.20;99.90
6375;DHT22;35400;45.472;-122.822;2023-06-24T13:41:39;11.50;99.90
6375;DHT22;35400;45.472;-122.822;2023-06-24T13:44:06;11.90;99.90
6375;DHT22;35400;45.472;-122.822;2023-06-24T13:46:33;12.40;99.90
6375;DHT22;35400;45.472;-122.822;2023-06-24T13:49:00;12.80;99.90
6375;DHT22;35400;45.472;-122.822;2023-06-24T13:51:28;13.20;99.90
6375;DHT22;35400;45.472;-122.822;2023-06-24T13:53:55;13.30;99.90
6375;DHT22;35400;45.472;-122.822;2023-06-24T13:56:23;13.40;99.90
6375;DHT22;35400;45.472;-122.822;2023-06-24T13:58:52;13.50;99.90
6375;DHT22;35400;45.472;-122.822;2023-06-24T14:01:19;13.60;99.90
6375;DHT22;35400;45.472;-122.822;2023-06-24T14:03:47;13.70;99.90
6375;DHT22;35400;45.472;-122.822;2023-06-24T14:06:15;13.80;99.90
6375;DHT22;35400;45.472;-122.822;2023-06-24T14:08:42;13.90;99.90
6375;DHT22;35400;45.472;-122.822;2023-06-24T14:11:09;14.00;99.90
6375;DHT22;35400;45.472;-122.822;2023-06-24T14:13:36;14.00;99.90
6375;DHT22;35400;45.472;-122.822;2023-06-24T14:16:04;14.00;99.90
6375;DHT22;35400;45.472;-122.822;2023-06-24T14:18:31;14.00;99.90
6375;DHT22;35400;45.472;-122.822;2023-06-24T14:21:04;13.90;99.90
6375;DHT22;35400;45.472;-122.822;2023-06-24T14:23:32;13.90;99.90
6375;DHT22;35400;45.472;-122.822;2023-06-24T14:25:59;13.90;99.90
6375;DHT22;35400;45.472;-122.822;2023-06-24T14:28:26;13.90;99.90
6375;DHT22;35400;45.472;-122.822;2023-06-24T14:30:53;13.80;99.90
6375;DHT22;35400;45.472;-122.822;2023-06-24T14:33:20;13.80;99.90
6375;DHT22;35400;45.472;-122.822;2023-06-24T14:35:47;13.70;99.90
6375;DHT22;35400;45.472;-122.822;2023-06-24T14:38:14;13.70;99.90
6375;DHT22;35400;45.472;-122.822;2023-06-24T14:40:40;13.70;99.90
6375;DHT22;35400;45.472;-122.822;2023-06-24T14:43:07;13.70;99.90
6375;DHT22;35400;45.472;-122.822;2023-06-24T14:45:34;13.70;99.90
6375;DHT22;35400;45.472;-122.822;2023-06-24T14:48:01;13.60;99.90
6375;DHT22;35400;45.472;-122.822;2023-06-24T14:50:28;13.60;99.90
6375;DHT22;35400;45.472;-122.822;2023-06-24T14:52:55;13.60;99.90
6375;DHT22;35400;45.472;-122.822;2023-06-24T14:55:22;13.60;99.90
6375;DHT22;35400;45.472;-122.822;2023-06-24T14:57:49;13.70;99.90
6375;DHT22;35400;45.472;-122.822;2023-06-24T15:00:16;13.80;99.90
6375;DHT22;35400;45.472;-122.822;2023-06-24T15:02:43;13.90;99.90
6375;DHT22;35400;45.472;-122.822;2023-06-24T15:05:10;14.00;99.90
6375;DHT22;35400;45.472;-122.822;2023-06-24T15:07:37;14.20;99.90
6375;DHT22;35400;45.472;-122.822;2023-06-24T15:10:07;14.50;99.90
6375;DHT22;35400;45.472;-122.822;2023-06-24T15:12:34;14.70;99.90
6375;DHT22;35400;45.472;-122.822;2023-06-24T15:15:01;15.00;99.90
6375;DHT22;35400;45.472;-122.822;2023-06-24T15:17:29;15.30;99.90
6375;DHT22;35400;45.472;-122.822;2023-06-24T15:19:56;15.50;99.90
6375;DHT22;35400;45.472;-122.822;2023-06-24T15:22:24;15.70;99.90
6375;DHT22;35400;45.472;-122.822;2023-06-24T15:24:50;15.80;99.90
6375;DHT22;35400;45.472;-122.822;2023-06-24T15:27:17;16.00;99.90